Manning, Oregon
Current Conditions -  °F | °C
As of 4:53 AM on Saturday 25 Oct 2014 (Local Time) from KHIO Reporting Station
Broken Clouds Broken Clouds  
Wind Chill: 44°   Ceiling: 11000
Heat Index: 46°   Visibility: 10mi
Dew Point: 46°   Wind: 5mph
Humidity: 100%   Direction: 280°W
Pressure: 29.49"   Gusts: NA
Location:  45.66°N, 123.16°W
Report Text: KHIO 251153Z AUTO 28004KT 10SM BKN110 08/08 A2949 RMK AO2 SLP985 70016 T00780078 10100 20072 56042 TSNO
Loading
Personal Weather Stations






























Interactive Weather Map
Tropical Storm Tracking
New forecast layout! Learn more

10-Day Weather Forecast

Advertisements
Track Severe Weather on mobile